Time;durP1;ratioP1;P1;durP2;ratioP2;P2;SDS_P1;SDS_P2;PMS_P1;PMS_P2;Temp;Humidity;BMP_temperature;BMP_pressure;BME280_temperature;BME280_humidity;BME280_pressure;Samples;Min_cycle;Max_cycle;Signal;HPM_P1;HPM_P2
2021/07/06 00:00:30;;;;;;;6.45;4.87;;;;;;;20.14;91.39;98601.13;1717270;83;21105;-66
2021/07/06 00:02:57;;;;;;;6.75;4.40;;;;;;;20.12;91.44;98599.95;1717665;83;21478;-66
2021/07/06 00:05:23;;;;;;;6.15;4.75;;;;;;;20.10;91.57;98597.94;1716894;83;21050;-66
2021/07/06 00:07:50;;;;;;;4.55;4.15;;;;;;;20.09;91.69;98589.67;1717014;83;21050;-66
2021/07/06 00:10:19;;;;;;;6.42;4.17;;;;;;;20.09;91.80;98594.95;1717147;83;21058;-66
2021/07/06 00:12:47;;;;;;;7.12;5.05;;;;;;;20.08;91.80;98603.02;1717257;83;20986;-66
2021/07/06 00:15:15;;;;;;;6.15;4.83;;;;;;;20.06;91.86;98604.96;1717550;83;20947;-66
2021/07/06 00:17:42;;;;;;;6.35;4.80;;;;;;;20.05;91.95;98603.30;1717189;83;21175;-66
2021/07/06 00:20:11;;;;;;;5.60;4.10;;;;;;;20.03;91.95;98604.76;1717202;83;20999;-66
2021/07/06 00:22:37;;;;;;;4.62;4.22;;;;;;;20.02;92.05;98604.91;1717182;81;21014;-66
2021/07/06 00:25:06;;;;;;;6.90;4.47;;;;;;;20.01;92.11;98605.39;1717256;83;21002;-66
2021/07/06 00:27:33;;;;;;;6.05;4.72;;;;;;;19.98;92.20;98613.63;1717587;83;20955;-66
2021/07/06 00:29:59;;;;;;;5.55;4.65;;;;;;;19.98;92.35;98611.47;1717256;83;21141;-66
2021/07/06 00:32:26;;;;;;;6.97;4.40;;;;;;;19.98;92.42;98617.58;1717362;83;21530;-66
2021/07/06 00:34:52;;;;;;;5.00;4.33;;;;;;;19.97;92.45;98620.36;1717240;83;20943;-66
2021/07/06 00:37:19;;;;;;;4.33;3.92;;;;;;;19.97;92.48;98625.16;1717250;83;21049;-66
2021/07/06 00:39:45;;;;;;;5.12;4.65;;;;;;;19.94;92.58;98627.59;1717487;83;21033;-66
2021/07/06 00:42:11;;;;;;;5.17;4.78;;;;;;;19.94;92.64;98627.59;1717224;83;22070;-66
2021/07/06 00:44:38;;;;;;;4.80;4.08;;;;;;;19.96;92.61;98626.12;1717422;83;21034;-66
2021/07/06 00:47:06;;;;;;;4.40;4.00;;;;;;;19.99;92.51;98632.89;1717320;83;21493;-66
2021/07/06 00:49:33;;;;;;;4.85;4.37;;;;;;;20.00;92.60;98626.64;1717415;83;21463;-66
2021/07/06 00:51:59;;;;;;;6.10;4.08;;;;;;;19.99;92.50;98628.45;1717361;83;21383;-66
2021/07/06 00:54:26;;;;;;;5.03;4.55;;;;;;;19.99;92.48;98632.89;1717198;83;21069;-66
2021/07/06 00:56:53;;;;;;;6.28;5.67;;;;;;;20.00;92.54;98627.97;1717096;83;20941;-66
2021/07/06 00:59:21;;;;;;;8.18;4.80;;;;;;;20.01;92.54;98636.23;1717413;83;21415;-66
2021/07/06 01:01:49;;;;;;;7.35;4.55;;;;;;;20.01;92.38;98638.38;1717204;83;20990;-66
2021/07/06 01:04:17;;;;;;;5.22;4.20;;;;;;;20.02;92.34;98641.37;1718970;82;20947;-66
2021/07/06 01:06:43;;;;;;;6.80;4.53;;;;;;;20.04;92.30;98634.14;1732918;82;21125;-66
2021/07/06 01:09:10;;;;;;;4.75;4.35;;;;;;;20.05;92.25;98630.53;1733186;82;21453;-66
2021/07/06 01:11:36;;;;;;;5.00;4.35;;;;;;;20.08;92.18;98638.65;1732894;82;21519;-66
2021/07/06 01:14:03;;;;;;;4.28;3.85;;;;;;;20.09;92.11;98637.19;1733096;82;20998;-66
2021/07/06 01:16:31;;;;;;;4.72;4.33;;;;;;;20.09;92.05;98635.88;1733002;82;20923;-66
2021/07/06 01:18:58;;;;;;;4.97;4.47;;;;;;;20.09;92.03;98641.15;1733397;82;21774;-66
2021/07/06 01:21:24;;;;;;;4.75;4.30;;;;;;;20.11;92.08;98638.37;1732849;82;21633;-66
2021/07/06 01:23:51;;;;;;;4.90;4.35;;;;;;;20.10;92.04;98641.50;1732901;82;20967;-66
2021/07/06 01:26:17;;;;;;;4.60;4.22;;;;;;;20.11;92.11;98644.97;1732906;82;21079;-66
2021/07/06 01:28:44;;;;;;;7.03;4.53;;;;;;;20.10;92.03;98641.98;1733101;82;21438;-66
2021/07/06 01:31:10;;;;;;;4.80;4.37;;;;;;;20.10;92.04;98645.94;1733149;82;21112;-66
2021/07/06 01:33:38;;;;;;;5.95;4.35;;;;;;;20.10;92.04;98644.63;1733109;82;21506;-66
2021/07/06 01:36:07;;;;;;;5.53;4.60;;;;;;;20.10;92.04;98645.94;1732890;82;20999;-66
2021/07/06 01:38:36;;;;;;;5.65;4.83;;;;;;;20.09;92.12;98643.79;1732941;82;21077;-66
2021/07/06 01:41:04;;;;;;;6.15;4.60;;;;;;;20.09;92.15;98650.39;1732997;82;21459;-66
2021/07/06 01:43:30;;;;;;;5.78;4.30;;;;;;;20.08;92.11;98651.36;1733213;82;21728;-66
2021/07/06 01:45:58;;;;;;;7.15;4.75;;;;;;;20.08;92.15;98647.41;1732887;82;20963;-66
2021/07/06 01:48:24;;;;;;;4.62;4.22;;;;;;;20.08;92.19;98657.13;1732948;82;20971;-66
2021/07/06 01:50:52;;;;;;;7.47;4.70;;;;;;;20.06;92.23;98650.67;1732932;82;21423;-66
2021/07/06 01:53:22;;;;;;;8.30;4.90;;;;;;;20.07;92.27;98654.14;1732923;82;21062;-66
2021/07/06 01:55:51;;;;;;;6.20;4.70;;;;;;;20.05;92.22;98654.77;1733238;82;21167;-66
2021/07/06 01:58:20;;;;;;;5.78;4.53;;;;;;;20.03;92.24;98657.55;1732889;82;21039;-66
2021/07/06 02:00:53;;;;;;;5.53;5.03;;;;;;;20.03;92.23;98665.95;1733308;82;20983;-66
2021/07/06 02:03:20;;;;;;;6.15;4.83;;;;;;;20.01;92.22;98671.38;1732772;82;20975;-66
2021/07/06 02:05:48;;;;;;;6.95;5.28;;;;;;;20.01;92.27;98669.22;1723382;82;20990;-66
2021/07/06 02:08:17;;;;;;;6.03;5.22;;;;;;;20.00;92.25;98669.70;1717082;83;21138;-66
2021/07/06 02:10:47;;;;;;;5.80;4.58;;;;;;;19.99;92.21;98675.96;1717308;83;21151;-66
2021/07/06 02:13:17;;;;;;;5.22;4.83;;;;;;;19.97;92.25;98673.98;1717335;83;20939;-66
2021/07/06 02:15:45;;;;;;;7.75;4.85;;;;;;;19.97;92.31;98677.94;1717132;83;21005;-66
2021/07/06 02:18:19;;;;;;;8.68;5.80;;;;;;;19.95;92.40;98683.36;1717207;83;20998;-66
2021/07/06 02:20:46;;;;;;;7.60;5.23;;;;;;;19.94;92.48;98680.38;1717360;82;21525;-66
2021/07/06 02:23:12;;;;;;;5.25;4.70;;;;;;;19.93;92.51;98682.66;1716976;83;21597;-66
2021/07/06 02:25:41;;;;;;;6.53;5.08;;;;;;;19.92;92.60;98683.63;1717106;83;20959;-66
2021/07/06 02:28:08;;;;;;;6.87;5.62;;;;;;;19.92;92.66;98692.04;1717129;82;21030;-66
2021/07/06 02:30:34;;;;;;;6.42;5.25;;;;;;;19.91;92.72;98695.65;1717471;83;20967;-66
2021/07/06 02:33:00;;;;;;;11.33;5.78;;;;;;;19.94;92.83;98700.66;1717044;83;21140;-66
2021/07/06 02:35:27;;;;;;;6.87;5.15;;;;;;;19.95;92.81;98704.95;1717119;83;21493;-66
2021/07/06 02:37:56;;;;;;;8.15;5.33;;;;;;;19.99;92.73;98702.84;1717254;83;21439;-66
2021/07/06 02:40:23;;;;;;;6.45;5.85;;;;;;;20.01;92.57;98697.77;1716915;83;21442;-66
2021/07/06 02:42:50;;;;;;;6.17;5.58;;;;;;;20.06;92.53;98702.15;1717257;83;20942;-66
2021/07/06 02:45:17;;;;;;;8.85;6.03;;;;;;;20.11;92.31;98713.61;1717024;83;21143;-66
2021/07/06 02:47:46;;;;;;;8.03;5.97;;;;;;;20.11;92.27;98707.00;1717077;83;21080;-66
2021/07/06 02:50:13;;;;;;;7.60;4.95;;;;;;;20.15;92.21;98709.72;1717020;83;20982;-66
2021/07/06 02:52:40;;;;;;;6.65;6.00;;;;;;;20.20;92.05;98703.49;1717050;83;20950;-66
2021/07/06 02:55:09;;;;;;;7.50;5.45;;;;;;;20.25;91.83;98703.91;1717090;83;37234;-66
2021/07/06 02:57:39;;;;;;;6.30;5.65;;;;;;;20.30;91.65;98713.08;1717141;83;21072;-66
2021/07/06 03:00:14;;;;;;;8.03;5.75;;;;;;;20.32;91.48;98710.29;1717286;83;21033;-66
2021/07/06 03:02:45;;;;;;;5.67;5.10;;;;;;;20.35;91.23;98713.14;1717239;83;20971;-65
2021/07/06 03:05:12;;;;;;;5.83;5.22;;;;;;;20.40;91.16;98709.59;1719474;82;20987;-65
2021/07/06 03:07:39;;;;;;;6.10;5.50;;;;;;;20.45;90.89;98721.88;1732882;82;20979;-65
2021/07/06 03:10:11;;;;;;;6.33;5.80;;;;;;;20.50;90.65;98726.25;1732825;82;21129;-65
2021/07/06 03:12:38;;;;;;;7.20;5.93;;;;;;;20.57;90.07;98726.03;1733050;82;21011;-65
2021/07/06 03:15:07;;;;;;;6.42;5.83;;;;;;;20.57;90.07;98726.03;1732816;82;21035;-65
2021/07/06 03:17:35;;;;;;;6.30;5.70;;;;;;;20.63;89.98;98728.07;1732845;82;20982;-65
2021/07/06 03:20:03;;;;;;;7.62;5.85;;;;;;;20.71;89.47;98733.48;1732886;82;20943;-65
2021/07/06 03:22:29;;;;;;;8.58;6.37;;;;;;;20.77;88.89;98729.43;1732936;82;21120;-65
2021/07/06 03:24:56;;;;;;;9.88;6.42;;;;;;;20.80;88.72;98729.94;1732933;82;21073;-64
2021/07/06 03:27:22;;;;;;;6.15;5.55;;;;;;;20.82;88.36;98738.56;1733132;82;21419;-65
2021/07/06 03:29:49;;;;;;;7.37;5.90;;;;;;;20.82;88.30;98737.23;1732899;82;21038;-65
2021/07/06 03:32:19;;;;;;;7.15;6.03;;;;;;;20.85;88.29;98745.38;1732842;82;21002;-64
2021/07/06 03:34:45;;;;;;;8.23;5.83;;;;;;;20.87;87.95;98743.41;1732843;82;21139;-65
2021/07/06 03:37:11;;;;;;;8.08;6.30;;;;;;;20.87;87.89;98743.41;1733132;82;20943;-65
2021/07/06 03:39:40;;;;;;;7.33;5.45;;;;;;;20.90;87.76;98739.16;1732946;82;20975;-65
2021/07/06 03:42:08;;;;;;;6.20;5.70;;;;;;;20.94;87.55;98744.51;1732903;82;21030;-65
2021/07/06 03:44:35;;;;;;;6.80;6.00;;;;;;;20.96;87.21;98744.70;1732919;82;21112;-65
2021/07/06 03:47:03;;;;;;;7.03;6.25;;;;;;;20.97;87.19;98745.54;1733075;82;21131;-65
2021/07/06 03:49:30;;;;;;;6.85;5.83;;;;;;;20.99;87.15;98746.20;1733273;82;20972;-65
2021/07/06 03:51:57;;;;;;;6.78;6.20;;;;;;;21.01;86.93;98741.59;1733022;82;20998;-65
2021/07/06 03:54:23;;;;;;;6.22;5.62;;;;;;;21.05;86.60;98748.75;1732985;82;21011;-65
2021/07/06 03:56:50;;;;;;;9.95;5.95;;;;;;;21.09;86.67;98760.22;1732907;82;21494;-65
2021/07/06 03:59:16;;;;;;;7.00;6.28;;;;;;;21.14;86.35;98754.49;1733010;82;21231;-65
2021/07/06 04:01:43;;;;;;;6.50;5.90;;;;;;;21.16;86.15;98752.05;1733151;82;21452;-65
2021/07/06 04:04:09;;;;;;;7.28;6.20;;;;;;;21.21;85.97;98755.58;1732983;82;21014;-65
2021/07/06 04:06:36;;;;;;;7.22;5.67;;;;;;;21.25;85.58;98759.59;1722591;82;21096;-65
2021/07/06 04:09:03;;;;;;;10.00;6.80;;;;;;;21.24;85.62;98748.19;1717491;83;21403;-65
2021/07/06 04:11:30;;;;;;;6.65;5.97;;;;;;;21.26;85.60;98752.00;1717163;83;21188;-66
2021/07/06 04:13:56;;;;;;;6.90;6.25;;;;;;;21.28;85.73;98748.23;1717460;82;20959;-65
2021/07/06 04:16:22;;;;;;;8.08;6.30;;;;;;;21.34;85.41;98749.46;1717502;83;20959;-65
2021/07/06 04:18:49;;;;;;;8.25;6.60;;;;;;;21.40;85.09;98748.84;1717158;82;20986;-65
2021/07/06 04:21:16;;;;;;;7.03;6.33;;;;;;;21.45;84.68;98752.38;1717479;83;21557;-65
2021/07/06 04:23:43;;;;;;;9.75;6.30;;;;;;;21.46;84.33;98747.42;1717377;83;21837;-65
2021/07/06 04:26:10;;;;;;;7.30;6.45;;;;;;;21.46;84.24;98747.42;1717261;83;21093;-66
2021/07/06 04:28:37;;;;;;;8.73;5.65;;;;;;;21.48;84.20;98750.75;1717430;83;21533;-65
2021/07/06 04:31:03;;;;;;;7.08;5.97;;;;;;;21.51;84.10;98754.43;1717162;83;21016;-65
2021/07/06 04:33:30;;;;;;;8.10;6.87;;;;;;;21.54;83.51;98748.84;1717360;83;21087;-66
2021/07/06 04:35:56;;;;;;;8.48;6.35;;;;;;;21.58;83.49;98766.89;1717102;83;21131;-66
2021/07/06 04:38:23;;;;;;;6.17;5.58;;;;;;;21.61;82.99;98759.14;1717123;82;21666;-66
2021/07/06 04:40:49;;;;;;;7.15;6.05;;;;;;;21.66;82.75;98768.80;1717181;83;21089;-65
2021/07/06 04:43:15;;;;;;;7.17;6.53;;;;;;;21.68;82.78;98769.48;1717552;83;21041;-65
2021/07/06 04:45:42;;;;;;;8.38;5.90;;;;;;;21.72;82.73;98773.49;1717203;82;20999;-66
2021/07/06 04:48:08;;;;;;;6.83;5.58;;;;;;;21.74;82.32;98775.99;1717596;83;21722;-64
2021/07/06 04:50:37;;;;;;;7.15;6.33;;;;;;;21.70;82.21;98771.98;1717273;83;21021;-66
2021/07/06 04:53:03;;;;;;;7.08;6.37;;;;;;;21.70;82.27;98772.81;1717564;83;20998;-65
2021/07/06 04:55:30;;;;;;;8.38;6.60;;;;;;;21.73;82.50;98775.66;1717306;83;21422;-66
2021/07/06 04:57:56;;;;;;;7.15;6.35;;;;;;;21.78;82.24;98774.72;1717563;83;21521;-66
2021/07/06 05:00:23;;;;;;;9.83;5.75;;;;;;;21.81;81.76;98767.77;1717192;82;21148;-65
2021/07/06 05:02:49;;;;;;;8.45;6.65;;;;;;;21.83;81.75;98777.72;1717369;83;21050;-65
2021/07/06 05:05:16;;;;;;;6.87;5.72;;;;;;;21.88;81.72;98772.31;1717174;83;21554;-66
2021/07/06 05:07:42;;;;;;;8.33;6.40;;;;;;;21.95;81.71;98775.20;1732496;82;20943;-66
2021/07/06 05:10:11;;;;;;;10.93;7.55;;;;;;;22.02;81.21;98780.23;1732983;82;20971;-66
2021/07/06 05:12:38;;;;;;;7.58;6.28;;;;;;;22.09;81.10;98776.49;1732896;82;21083;-66
2021/07/06 05:15:06;;;;;;;7.25;6.08;;;;;;;22.16;80.67;98770.44;1732823;82;20983;-65
2021/07/06 05:17:33;;;;;;;6.90;5.67;;;;;;;22.22;80.45;98776.42;1732877;82;20987;-64
2021/07/06 05:19:59;;;;;;;7.87;6.87;;;;;;;22.27;80.16;98778.62;1732905;82;21003;-63
2021/07/06 05:22:26;;;;;;;10.30;6.50;;;;;;;22.31;79.37;98777.33;1733053;82;21510;-64
2021/07/06 05:24:53;;;;;;;10.55;6.72;;;;;;;22.34;79.13;98777.03;1732846;82;21143;-64
2021/07/06 05:27:19;;;;;;;8.38;6.08;;;;;;;22.37;79.05;98778.05;1732862;82;20983;-64
2021/07/06 05:29:46;;;;;;;8.23;5.00;;;;;;;22.43;78.52;98776.58;1733127;82;21081;-64
2021/07/06 05:32:17;;;;;;;10.23;6.37;;;;;;;22.43;78.15;98777.41;1733113;82;21392;-64
2021/07/06 05:34:43;;;;;;;7.17;6.47;;;;;;;22.43;78.21;98775.25;1732841;82;20967;-64
2021/07/06 05:37:10;;;;;;;7.10;6.45;;;;;;;22.46;78.16;98782.40;1732907;82;21121;-64
2021/07/06 05:39:37;;;;;;;9.13;6.37;;;;;;;22.50;77.67;98792.20;1732907;82;21530;-65
2021/07/06 05:42:04;;;;;;;9.53;6.53;;;;;;;22.48;77.44;98788.87;1732784;82;20955;-64
2021/07/06 05:44:32;;;;;;;7.25;6.45;;;;;;;22.46;77.60;98796.14;1732807;82;21102;-64
2021/07/06 05:46:58;;;;;;;7.10;6.30;;;;;;;22.47;77.69;98795.98;1732990;82;21054;-64
2021/07/06 05:49:25;;;;;;;6.60;6.08;;;;;;;22.53;77.63;98798.03;1733204;82;21834;-64
2021/07/06 05:51:52;;;;;;;8.85;6.37;;;;;;;22.56;77.53;98797.72;1732753;81;20939;-64
2021/07/06 05:54:18;;;;;;;8.18;6.72;;;;;;;22.63;77.57;98788.63;1732924;82;21076;-64
2021/07/06 05:56:45;;;;;;;7.15;6.55;;;;;;;22.71;76.93;98797.97;1733013;82;21004;-65
2021/07/06 05:59:11;;;;;;;7.15;6.20;;;;;;;22.75;76.78;98796.67;1733024;82;20995;-64
2021/07/06 06:01:38;;;;;;;9.85;6.60;;;;;;;22.83;76.65;98798.06;1732800;82;21123;-64
2021/07/06 06:04:04;;;;;;;6.65;6.05;;;;;;;22.90;75.85;98794.30;1733079;82;21114;-64
2021/07/06 06:06:31;;;;;;;7.78;6.22;;;;;;;22.96;75.55;98806.94;1732728;82;21725;-64
2021/07/06 06:08:57;;;;;;;7.20;5.97;;;;;;;23.03;75.53;98802.14;1732861;82;21999;-64
2021/07/06 06:11:24;;;;;;;7.67;6.80;;;;;;;23.11;74.69;98794.73;1732829;82;20963;-63
2021/07/06 06:13:50;;;;;;;11.73;6.47;;;;;;;23.19;74.77;98801.87;1733058;82;21116;-63
2021/07/06 06:16:17;;;;;;;6.97;6.37;;;;;;;23.28;74.21;98800.43;1732774;82;20999;-65
2021/07/06 06:18:43;;;;;;;7.80;6.97;;;;;;;23.38;73.44;98804.79;1732773;82;21051;-64
2021/07/06 06:21:10;;;;;;;8.50;7.28;;;;;;;23.36;73.19;98813.73;1732850;82;20991;-64
2021/07/06 06:23:36;;;;;;;9.63;7.40;;;;;;;23.39;73.20;98803.27;1743418;81;21055;-64
2021/07/06 06:26:03;;;;;;;8.55;6.83;;;;;;;23.45;73.11;98803.13;1763141;81;21100;-64
2021/07/06 06:28:30;;;;;;;7.62;6.42;;;;;;;23.55;73.03;98806.03;1763254;81;21440;-64
2021/07/06 06:30:57;;;;;;;8.93;6.95;;;;;;;23.61;72.76;98807.19;1763101;81;21468;-64
2021/07/06 06:33:23;;;;;;;7.50;6.83;;;;;;;23.66;72.43;98811.52;1763117;81;20999;-64
2021/07/06 06:35:50;;;;;;;9.20;7.30;;;;;;;23.69;72.92;98805.39;1763446;81;20999;-63
2021/07/06 06:38:16;;;;;;;7.83;7.05;;;;;;;23.75;72.79;98806.58;1763192;81;21508;-65
2021/07/06 06:40:43;;;;;;;8.85;7.00;;;;;;;23.85;71.89;98813.88;1762970;81;20987;-65
2021/07/06 06:43:09;;;;;;;7.40;6.80;;;;;;;23.90;71.63;98809.41;1763048;81;21023;-65
2021/07/06 06:45:35;;;;;;;9.63;7.90;;;;;;;23.94;71.88;98816.06;1762940;81;21029;-65
2021/07/06 06:48:02;;;;;;;7.55;6.45;;;;;;;24.02;71.66;98816.05;1763193;81;20995;-65
2021/07/06 06:50:29;;;;;;;10.60;7.45;;;;;;;24.13;71.35;98813.09;1763235;81;21134;-65
2021/07/06 06:52:55;;;;;;;9.18;7.20;;;;;;;24.28;71.20;98813.28;1763093;81;21018;-65
2021/07/06 06:55:22;;;;;;;7.00;6.37;;;;;;;24.44;70.77;98811.11;1763244;81;20936;-66
2021/07/06 06:57:48;;;;;;;7.20;6.50;;;;;;;24.57;69.39;98816.27;1763154;81;21023;-63
2021/07/06 07:00:16;;;;;;;7.95;7.17;;;;;;;24.62;69.21;98813.91;1763219;81;20963;-63
2021/07/06 07:02:43;;;;;;;8.15;7.45;;;;;;;24.76;68.55;98814.23;1763109;81;21050;-65
2021/07/06 07:05:12;;;;;;;7.83;6.75;;;;;;;24.93;68.35;98813.19;1762991;81;20936;-64
2021/07/06 07:07:38;;;;;;;8.08;6.92;;;;;;;;;;1763047;81;21038;-65
2021/07/06 07:10:07;;;;;;;10.45;7.12;;;;;;;25.36;67.38;98811.91;1763113;81;20947;-65
2021/07/06 07:12:35;;;;;;;7.62;6.92;;;;;;;25.51;65.25;98820.80;1763418;81;20955;-65
2021/07/06 07:15:04;;;;;;;8.93;6.60;;;;;;;25.49;65.48;98816.16;1763509;81;21151;-66
2021/07/06 07:17:32;;;;;;;7.78;6.95;;;;;;;25.47;65.36;98818.66;1763025;81;20963;-65
2021/07/06 07:19:58;;;;;;;7.70;6.78;;;;;;;25.42;65.22;98820.50;1763164;81;21471;-64
2021/07/06 07:22:25;;;;;;;7.50;6.70;;;;;;;25.37;65.53;98821.05;1763660;81;20953;-64
2021/07/06 07:24:51;;;;;;;7.17;6.60;;;;;;;25.34;66.00;98816.06;1763516;81;21468;-67
2021/07/06 07:27:18;;;;;;;6.83;6.22;;;;;;;25.37;66.01;98820.22;1763170;81;23296;-66
2021/07/06 07:29:44;;;;;;;8.18;6.55;;;;;;;25.38;65.97;98820.02;1763430;81;20970;-65
2021/07/06 07:32:11;;;;;;;8.65;6.72;;;;;;;25.41;66.05;98818.84;1763294;81;20963;-65
2021/07/06 07:34:37;;;;;;;7.12;6.53;;;;;;;25.46;66.29;98821.82;1763211;81;21971;-64
2021/07/06 07:37:04;;;;;;;8.55;6.12;;;;;;;25.55;66.13;98819.45;1763225;81;20995;-65
2021/07/06 07:39:33;;;;;;;8.58;6.33;;;;;;;25.69;65.94;98822.73;1713727;81;21151;-64
2021/07/06 07:42:04;;;;;;;6.65;5.92;;;;;;;25.83;64.86;98818.98;1763173;81;21038;-64
2021/07/06 07:44:31;;;;;;;6.70;5.83;;;;;;;25.92;65.27;98824.59;1763447;81;21236;-64
2021/07/06 07:46:59;;;;;;;5.95;5.40;;;;;;;26.02;63.78;98827.84;1763250;81;21096;-64
2021/07/06 07:49:26;;;;;;;6.67;6.05;;;;;;;26.10;63.07;98834.45;1763585;81;21612;-64
2021/07/06 07:51:52;;;;;;;8.50;6.10;;;;;;;26.11;63.07;98833.95;1763285;81;21190;-67
2021/07/06 07:54:18;;;;;;;8.95;6.47;;;;;;;26.14;63.39;98838.93;1763293;81;21071;-64
2021/07/06 07:56:45;;;;;;;8.80;5.65;;;;;;;26.19;62.99;98837.88;1763346;81;21058;-66
2021/07/06 07:59:12;;;;;;;6.83;6.20;;;;;;;26.21;62.75;98843.35;1763280;81;20939;-65
2021/07/06 08:01:39;;;;;;;7.08;6.05;;;;;;;26.22;63.02;98841.52;1763443;81;21015;-64
2021/07/06 08:04:06;;;;;;;7.33;6.20;;;;;;;26.27;62.71;98847.16;1763198;81;21163;-65
2021/07/06 08:06:32;;;;;;;6.85;5.87;;;;;;;26.25;62.34;98857.16;1763099;81;20936;-62
2021/07/06 08:09:01;;;;;;;7.75;5.95;;;;;;;26.18;62.46;98857.56;1763156;81;21421;-65
2021/07/06 08:11:27;;;;;;;7.05;6.20;;;;;;;26.16;62.43;98851.58;1752726;81;20947;-67
2021/07/06 08:13:55;;;;;;;7.17;6.03;;;;;;;26.17;62.35;98853.24;1733082;82;21415;-65
2021/07/06 08:16:22;;;;;;;7.60;6.33;;;;;;;26.22;62.50;98849.02;1732941;82;23176;-64
2021/07/06 08:18:48;;;;;;;7.12;5.95;;;;;;;26.27;62.21;98844.48;1732973;82;21486;-65
2021/07/06 08:21:15;;;;;;;9.90;6.92;;;;;;;26.30;61.67;98848.16;1732934;82;20955;-64
2021/07/06 08:23:43;;;;;;;6.55;5.90;;;;;;;26.33;61.19;98847.81;1732960;82;21089;-66
2021/07/06 08:26:10;;;;;;;7.95;6.42;;;;;;;26.39;62.38;98835.91;1733082;82;21459;-65
2021/07/06 08:28:37;;;;;;;6.35;5.85;;;;;;;26.54;62.27;98841.80;1732990;82;21147;-66
2021/07/06 08:31:03;;;;;;;7.37;6.65;;;;;;;26.63;62.04;98844.20;1732883;82;20956;-64
2021/07/06 08:33:30;;;;;;;7.50;5.90;;;;;;;26.70;61.98;98849.14;1733247;82;20983;-66
2021/07/06 08:35:56;;;;;;;6.90;6.12;;;;;;;26.78;61.89;98850.09;1732911;82;21081;-67
2021/07/06 08:38:23;;;;;;;7.08;6.47;;;;;;;26.78;61.54;98861.05;1732971;82;20999;-65
2021/07/06 08:40:50;;;;;;;10.20;6.67;;;;;;;26.71;61.69;98854.80;1732959;82;21140;-65
2021/07/06 08:43:18;;;;;;;7.22;6.50;;;;;;;26.69;61.84;98851.48;1733075;82;21558;-65
2021/07/06 08:45:45;;;;;;;6.95;6.28;;;;;;;26.70;62.28;98850.98;1732045;82;21066;-67
2021/07/06 08:48:14;;;;;;;6.80;6.08;;;;;;;26.83;62.64;98852.51;1731865;82;22043;-66
2021/07/06 08:50:45;;;;;;;14.30;7.12;;;;;;;26.95;61.80;98850.27;1731990;82;21538;-66
2021/07/06 08:53:12;;;;;;;12.78;6.75;;;;;;;27.04;61.32;98856.66;1731959;82;21138;-66
2021/07/06 08:55:38;;;;;;;7.25;6.55;;;;;;;27.16;60.69;98852.22;1731882;82;21094;-66
2021/07/06 08:58:05;;;;;;;9.20;6.92;;;;;;;27.22;59.90;98854.95;1732017;82;20995;-66
2021/07/06 09:00:31;;;;;;;7.78;6.45;;;;;;;27.26;59.47;98848.74;1732719;82;20991;-67
2021/07/06 09:03:04;;;;;;;7.15;6.50;;;;;;;27.35;59.38;98847.14;1732815;82;21503;-66
2021/07/06 09:05:31;;;;;;;10.23;7.08;;;;;;;27.49;58.93;98856.64;1732853;82;21318;-65
2021/07/06 09:07:58;;;;;;;7.55;6.85;;;;;;;27.57;58.63;98851.21;1724194;81;21127;-64
2021/07/06 09:10:27;;;;;;;7.90;7.40;;;;;;;27.58;58.29;98854.23;1717118;81;20943;-66
2021/07/06 09:12:53;;;;;;;10.00;7.30;;;;;;;27.56;57.48;98846.38;1717084;83;21048;-65
2021/07/06 09:15:31;;;;;;;10.82;9.68;;;;;;;27.55;58.66;98849.23;1717281;83;21439;-65
2021/07/06 09:18:12;;;;;;;8.13;7.35;;;;;;;27.57;58.66;98852.55;1717324;83;21175;-65
2021/07/06 09:20:39;;;;;;;8.40;7.47;;;;;;;27.53;58.31;98852.09;1717088;83;21007;-66
2021/07/06 09:23:42;;;;;;;8.45;7.78;;;;;;;27.48;59.25;98850.98;1717138;83;21081;-66
2021/07/06 09:26:14;;;;;;;10.30;7.28;;;;;;;27.66;59.04;98839.41;1716146;83;20962;-65
2021/07/06 09:28:51;;;;;;;9.13;7.67;;;;;;;27.92;57.28;98840.23;1717362;83;20994;-66
2021/07/06 09:31:31;;;;;;;9.23;8.38;;;;;;;27.95;56.77;98851.88;1717057;83;21202;-65
2021/07/06 09:34:04;;;;;;;8.33;7.65;;;;;;;27.94;57.42;98846.22;1717498;83;20998;-65
2021/07/06 09:36:35;;;;;;;7.92;7.22;;;;;;;28.04;57.32;98854.23;1717053;82;20963;-66
2021/07/06 09:39:22;;;;;;;11.10;8.13;;;;;;;28.21;56.69;98850.83;1717077;83;20971;-67
2021/07/06 09:42:04;;;;;;;8.68;7.85;;;;;;;28.26;55.86;98851.59;1717332;83;21070;-67
2021/07/06 09:44:35;;;;;;;9.65;8.68;;;;;;;28.16;56.93;98856.41;1717603;82;21872;-67
2021/07/06 09:47:07;;;;;;;8.08;7.47;;;;;;;28.11;56.23;98859.66;1723912;82;21058;-66
2021/07/06 09:49:37;;;;;;;9.18;7.42;;;;;;;28.09;56.12;98861.17;1717474;82;21489;-67
2021/07/06 09:52:18;;;;;;;9.78;7.67;;;;;;;28.12;56.25;98864.81;1720034;82;20959;-66
2021/07/06 09:54:48;;;;;;;7.97;7.25;;;;;;;28.18;55.75;98863.74;1717090;83;21019;-66
2021/07/06 10:00:07;;;;;;;8.53;7.65;;;;;;;28.33;54.90;98877.39;1717596;82;20990;-66
2021/07/06 10:02:41;;;;;;;8.40;7.60;;;;;;;28.30;55.75;98871.59;1717138;83;21006;-66
2021/07/06 10:05:16;;;;;;;7.92;7.17;;;;;;;28.26;55.24;98872.48;1740438;82;21002;-67
2021/07/06 10:07:41;;;;;;;7.85;7.25;;;;;;;28.24;55.87;98866.49;1747404;80;21009;-66
2021/07/06 10:10:11;;;;;;;7.28;6.67;;;;;;;28.27;55.78;98870.12;1735582;82;21206;-67
2021/07/06 10:12:42;;;;;;;7.90;6.78;;;;;;;28.36;56.22;98865.48;1719689;83;21529;-66
2021/07/06 10:15:10;;;;;;;7.40;6.80;;;;;;;28.53;55.31;98868.20;1722790;82;21041;-66
2021/07/06 10:17:38;;;;;;;6.50;5.95;;;;;;;28.66;55.66;98872.32;1719704;83;21509;-65
2021/07/06 10:20:13;;;;;;;7.70;6.80;;;;;;;28.72;55.47;98866.71;1719600;82;21089;-66
2021/07/06 10:22:39;;;;;;;6.80;6.30;;;;;;;28.76;55.23;98868.81;1719617;83;21151;-66
2021/07/06 10:25:09;;;;;;;7.42;6.83;;;;;;;28.85;56.16;98871.36;1719494;83;21022;-66
2021/07/06 10:27:38;;;;;;;6.85;6.15;;;;;;;28.97;55.21;98871.98;1718192;83;21021;-65
2021/07/06 10:30:16;;;;;;;6.40;5.90;;;;;;;29.05;54.10;98874.48;1718474;83;20967;-65
2021/07/06 10:32:52;;;;;;;6.92;5.83;;;;;;;28.97;53.89;98873.83;1719974;83;21407;-64
2021/07/06 10:35:45;;;;;;;6.85;6.33;;;;;;;28.77;54.60;98884.36;1719456;82;21155;-65
2021/07/06 10:38:32;;;;;;;8.65;6.50;;;;;;;28.65;55.38;98884.04;1734767;82;20951;-66
2021/07/06 10:41:03;;;;;;;7.15;6.65;;;;;;;28.71;55.70;98882.45;1749496;82;21042;-66
2021/07/06 10:43:46;;;;;;;8.20;6.60;;;;;;;28.82;55.57;98887.29;1733907;82;20951;-64
2021/07/06 10:46:25;;;;;;;8.18;6.53;;;;;;;28.76;55.07;98879.52;1740292;81;20940;-64
2021/07/06 10:49:06;;;;;;;9.30;7.70;;;;;;;28.67;55.98;98882.52;1724003;82;21224;-66
2021/07/06 10:51:41;;;;;;;9.05;8.08;;;;;;;28.72;55.51;98892.96;1744915;82;20950;-67
2021/07/06 10:54:29;;;;;;;10.28;9.30;;;;;;;28.80;54.73;98885.31;1749372;82;21011;-64
2021/07/06 10:57:09;;;;;;;17.23;10.03;;;;;;;28.91;54.31;98887.98;1728313;82;21444;-66
2021/07/06 10:59:37;;;;;;;10.10;9.30;;;;;;;29.03;53.39;98890.42;1749514;82;21070;-65
2021/07/06 11:02:12;;;;;;;9.40;8.63;;;;;;;29.13;53.46;98886.91;1749344;82;21128;-66
2021/07/06 11:04:46;;;;;;;10.48;9.10;;;;;;;29.33;53.58;98880.33;1736334;82;21009;-65
2021/07/06 11:07:39;;;;;;;9.73;8.83;;;;;;;29.45;51.52;98878.25;1734860;82;21474;-65
2021/07/06 11:10:09;;;;;;;10.70;9.80;;;;;;;29.48;51.49;98881.88;1736523;82;21022;-66
2021/07/06 11:12:37;;;;;;;12.33;11.43;;;;;;;29.47;52.23;98885.58;1719844;83;21010;-65
2021/07/06 11:15:19;;;;;;;12.30;11.30;;;;;;;29.38;51.16;98889.41;1719687;83;20942;-67
2021/07/06 11:17:51;;;;;;;12.20;11.25;;;;;;;29.33;51.52;98879.81;1737604;82;21030;-66
2021/07/06 11:20:30;;;;;;;12.45;11.65;;;;;;;29.41;51.93;98888.22;1693153;83;21064;-65
2021/07/06 11:22:57;;;;;;;13.05;11.73;;;;;;;29.42;52.27;98888.02;1729749;82;21594;-66
2021/07/06 11:25:37;;;;;;;14.90;12.10;;;;;;;29.29;52.27;98897.81;1749312;82;20959;-66
2021/07/06 11:28:13;;;;;;;13.70;12.70;;;;;;;29.14;52.67;98895.26;1749212;82;21153;-66
2021/07/06 11:30:50;;;;;;;14.23;12.82;;;;;;;29.04;53.43;98892.08;1719459;82;21030;-65
2021/07/06 11:33:23;;;;;;;12.80;11.90;;;;;;;29.09;53.56;98893.67;1727539;82;21018;-66
2021/07/06 11:35:55;;;;;;;14.98;13.40;;;;;;;29.11;52.68;98889.78;1723729;82;21407;-64
2021/07/06 11:38:27;;;;;;;13.83;12.60;;;;;;;29.16;52.88;98900.42;1734445;82;21030;-66
2021/07/06 11:41:00;;;;;;;13.77;12.77;;;;;;;29.27;52.29;98889.97;1732643;82;21129;-67